This is the latest recevied weather packets stored in our database for station/object IR4UCA. If no packets are shown the sender has not sent any weather packets the latest 1 day(s).
| Time | Temp. | Humidity | Pressure | Rain* | Wind** | Luminosity | Snow |
|---|---|---|---|---|---|---|---|
| 1778080783 | 19.44° C | 73% | 1008.1 hPa | 0 mm | - | - | - |
| 1778078983 | 19.44° C | 74% | 1008.2 hPa | 0 mm | - | - | - |
| 1778074783 | 18.89° C | 76% | 1008.5 hPa | 0 mm | - | - | - |
| 1778074184 | 18.33° C | 78% | 1009 hPa | 0 mm | - | - | - |
| 1778073583 | 18.33° C | 82% | 1008.8 hPa | 0 mm | - | - | - |
| 1778072983 | 18.33° C | 84% | 1009.3 hPa | 0.25 mm | - | - | - |
| 1778070585 | 18.33° C | 88% | 1009.1 hPa | 0.51 mm | - | - | - |
| 1778069983 | 18.33° C | 89% | 1009 hPa | 0.51 mm | - | - | - |
| 1778069384 | 18.33° C | 88% | 1009.5 hPa | 0.25 mm | - | - | - |
| 1778066985 | 19.44° C | 76% | 1008.9 hPa | 0 mm | - | - | - |
| 1778065784 | 19.44° C | 75% | 1009 hPa | 0 mm | - | - | - |
| 1778063985 | 18.89° C | 85% | 1009.1 hPa | 0 mm | - | - | - |
| 1778063384 | 18.89° C | 88% | 1009.1 hPa | 0 mm | - | - | - |
| 1778062784 | 18.33° C | 88% | 1009.3 hPa | 0 mm | - | - | - |
| 1778062184 | 18.33° C | 90% | 1009.3 hPa | 0 mm | - | - | - |
| 1778060984 | 17.22° C | 91% | 1009.3 hPa | 0 mm | - | - | - |
| 1778060386 | 16.67° C | 91% | 1009.2 hPa | 0.25 mm | - | - | - |
| 1778057384 | 15.56° C | 91% | 1009.5 hPa | 1.02 mm | - | - | - |
| 1778056784 | 15° C | 91% | 1009.6 hPa | 1.02 mm | - | - | - |
| 1778056186 | 15° C | 91% | 1009.5 hPa | 1.27 mm | - | - | - |
| 1778055584 | 15° C | 91% | 1009.4 hPa | 1.52 mm | - | - | - |
| 1778054984 | 15° C | 91% | 1009.3 hPa | 1.52 mm | - | - | - |
| 1778054384 | 15° C | 91% | 1009.4 hPa | 1.52 mm | - | - | - |
| 1778053784 | 15° C | 91% | 1009.6 hPa | 1.52 mm | - | - | - |
| 1778053184 | 15° C | 91% | 1009.6 hPa | 1.52 mm | - | - | - |
* Rain latest hour (hover to see other rain measurements)
** Current wind speed in m/s (hover to see current wind gust speed)